sensor_id;sensor_type;location;lat;lon;timestamp;P1;durP1;ratioP1;P2;durP2;ratioP2
19923;SDS011;10124;53.068;18.224;2023-04-03T00:01:09;14.93;;;4.27;;
19923;SDS011;10124;53.068;18.224;2023-04-03T00:03:36;9.47;;;3.70;;
19923;SDS011;10124;53.068;18.224;2023-04-03T00:06:05;9.83;;;3.63;;
19923;SDS011;10124;53.068;18.224;2023-04-03T00:08:33;9.50;;;3.83;;
19923;SDS011;10124;53.068;18.224;2023-04-03T00:11:02;14.07;;;4.13;;
19923;SDS011;10124;53.068;18.224;2023-04-03T00:13:29;13.67;;;3.73;;
19923;SDS011;10124;53.068;18.224;2023-04-03T00:15:58;8.83;;;3.73;;
19923;SDS011;10124;53.068;18.224;2023-04-03T00:18:25;7.20;;;2.93;;
19923;SDS011;10124;53.068;18.224;2023-04-03T00:20:52;10.53;;;3.20;;
19923;SDS011;10124;53.068;18.224;2023-04-03T00:23:20;9.20;;;4.00;;
19923;SDS011;10124;53.068;18.224;2023-04-03T00:25:48;15.17;;;4.87;;
19923;SDS011;10124;53.068;18.224;2023-04-03T00:28:16;11.30;;;5.40;;
19923;SDS011;10124;53.068;18.224;2023-04-03T00:30:43;9.47;;;5.07;;
19923;SDS011;10124;53.068;18.224;2023-04-03T00:33:13;12.97;;;4.73;;
19923;SDS011;10124;53.068;18.224;2023-04-03T00:35:41;11.53;;;4.00;;
19923;SDS011;10124;53.068;18.224;2023-04-03T00:38:09;9.97;;;3.90;;
19923;SDS011;10124;53.068;18.224;2023-04-03T00:40:39;11.37;;;3.90;;
19923;SDS011;10124;53.068;18.224;2023-04-03T00:43:14;9.40;;;3.90;;
19923;SDS011;10124;53.068;18.224;2023-04-03T00:45:49;14.83;;;4.27;;
19923;SDS011;10124;53.068;18.224;2023-04-03T00:48:22;9.80;;;3.63;;
19923;SDS011;10124;53.068;18.224;2023-04-03T00:50:56;9.33;;;4.80;;
19923;SDS011;10124;53.068;18.224;2023-04-03T00:53:30;11.77;;;3.53;;
19923;SDS011;10124;53.068;18.224;2023-04-03T00:56:13;10.07;;;4.17;;
19923;SDS011;10124;53.068;18.224;2023-04-03T00:58:44;12.40;;;4.23;;
19923;SDS011;10124;53.068;18.224;2023-04-03T01:01:18;13.77;;;5.40;;
19923;SDS011;10124;53.068;18.224;2023-04-03T01:03:51;14.63;;;4.53;;
19923;SDS011;10124;53.068;18.224;2023-04-03T01:06:29;11.70;;;4.43;;
19923;SDS011;10124;53.068;18.224;2023-04-03T01:09:06;14.73;;;4.13;;
19923;SDS011;10124;53.068;18.224;2023-04-03T01:11:34;11.30;;;4.43;;
19923;SDS011;10124;53.068;18.224;2023-04-03T01:14:02;15.13;;;5.17;;
19923;SDS011;10124;53.068;18.224;2023-04-03T01:16:29;21.63;;;4.70;;
19923;SDS011;10124;53.068;18.224;2023-04-03T01:18:59;13.27;;;3.87;;
19923;SDS011;10124;53.068;18.224;2023-04-03T01:26:52;18.40;;;5.30;;
19923;SDS011;10124;53.068;18.224;2023-04-03T01:29:20;12.97;;;4.83;;
19923;SDS011;10124;53.068;18.224;2023-04-03T01:31:52;13.07;;;5.60;;
19923;SDS011;10124;53.068;18.224;2023-04-03T01:34:21;14.97;;;5.10;;
19923;SDS011;10124;53.068;18.224;2023-04-03T01:36:50;15.93;;;4.90;;
19923;SDS011;10124;53.068;18.224;2023-04-03T01:39:19;10.20;;;4.43;;
19923;SDS011;10124;53.068;18.224;2023-04-03T01:41:48;16.33;;;5.83;;
19923;SDS011;10124;53.068;18.224;2023-04-03T01:44:22;11.13;;;4.87;;
19923;SDS011;10124;53.068;18.224;2023-04-03T01:46:50;17.77;;;4.67;;
19923;SDS011;10124;53.068;18.224;2023-04-03T01:49:20;11.63;;;4.67;;
19923;SDS011;10124;53.068;18.224;2023-04-03T01:51:48;16.67;;;5.30;;
19923;SDS011;10124;53.068;18.224;2023-04-03T01:54:16;13.83;;;4.73;;
19923;SDS011;10124;53.068;18.224;2023-04-03T01:56:44;10.70;;;4.73;;
19923;SDS011;10124;53.068;18.224;2023-04-03T01:59:13;16.27;;;5.20;;
19923;SDS011;10124;53.068;18.224;2023-04-03T02:01:44;11.67;;;4.97;;
19923;SDS011;10124;53.068;18.224;2023-04-03T02:04:12;16.13;;;4.90;;
19923;SDS011;10124;53.068;18.224;2023-04-03T02:06:40;13.10;;;4.63;;
19923;SDS011;10124;53.068;18.224;2023-04-03T02:09:08;10.90;;;4.93;;
19923;SDS011;10124;53.068;18.224;2023-04-03T02:11:36;12.53;;;5.30;;
19923;SDS011;10124;53.068;18.224;2023-04-03T02:14:04;15.17;;;3.87;;
19923;SDS011;10124;53.068;18.224;2023-04-03T02:16:31;11.13;;;4.60;;
19923;SDS011;10124;53.068;18.224;2023-04-03T02:18:59;10.53;;;3.67;;
19923;SDS011;10124;53.068;18.224;2023-04-03T02:21:29;6.47;;;3.53;;
19923;SDS011;10124;53.068;18.224;2023-04-03T02:23:57;10.57;;;4.00;;
19923;SDS011;10124;53.068;18.224;2023-04-03T02:26:24;13.57;;;3.80;;
19923;SDS011;10124;53.068;18.224;2023-04-03T02:28:53;11.67;;;4.53;;
19923;SDS011;10124;53.068;18.224;2023-04-03T02:31:21;14.23;;;4.20;;
19923;SDS011;10124;53.068;18.224;2023-04-03T02:33:49;9.30;;;4.03;;
19923;SDS011;10124;53.068;18.224;2023-04-03T02:36:17;8.17;;;3.97;;
19923;SDS011;10124;53.068;18.224;2023-04-03T02:38:51;14.07;;;5.17;;
19923;SDS011;10124;53.068;18.224;2023-04-03T02:41:19;11.70;;;4.27;;
19923;SDS011;10124;53.068;18.224;2023-04-03T02:43:49;10.87;;;4.50;;
19923;SDS011;10124;53.068;18.224;2023-04-03T02:46:17;10.77;;;4.20;;
19923;SDS011;10124;53.068;18.224;2023-04-03T02:48:45;11.67;;;4.00;;
19923;SDS011;10124;53.068;18.224;2023-04-03T02:51:12;10.30;;;4.20;;
19923;SDS011;10124;53.068;18.224;2023-04-03T02:53:40;8.37;;;4.20;;
19923;SDS011;10124;53.068;18.224;2023-04-03T02:56:13;14.93;;;4.50;;
19923;SDS011;10124;53.068;18.224;2023-04-03T02:58:41;12.70;;;4.30;;
19923;SDS011;10124;53.068;18.224;2023-04-03T03:01:09;11.03;;;4.10;;
19923;SDS011;10124;53.068;18.224;2023-04-03T03:03:37;10.40;;;4.10;;
19923;SDS011;10124;53.068;18.224;2023-04-03T03:06:05;13.30;;;4.10;;
19923;SDS011;10124;53.068;18.224;2023-04-03T03:08:35;11.90;;;4.20;;
19923;SDS011;10124;53.068;18.224;2023-04-03T03:11:03;15.27;;;4.50;;
19923;SDS011;10124;53.068;18.224;2023-04-03T03:13:32;8.63;;;3.47;;
19923;SDS011;10124;53.068;18.224;2023-04-03T03:16:00;11.10;;;3.90;;
19923;SDS011;10124;53.068;18.224;2023-04-03T03:18:28;7.90;;;3.73;;
19923;SDS011;10124;53.068;18.224;2023-04-03T03:20:58;12.17;;;4.50;;
19923;SDS011;10124;53.068;18.224;2023-04-03T03:23:28;9.97;;;4.10;;
19923;SDS011;10124;53.068;18.224;2023-04-03T03:26:00;10.60;;;3.57;;
19923;SDS011;10124;53.068;18.224;2023-04-03T03:28:30;10.93;;;3.73;;
19923;SDS011;10124;53.068;18.224;2023-04-03T03:30:58;14.60;;;4.40;;
19923;SDS011;10124;53.068;18.224;2023-04-03T03:33:26;11.07;;;3.73;;
19923;SDS011;10124;53.068;18.224;2023-04-03T03:35:54;11.93;;;4.00;;
19923;SDS011;10124;53.068;18.224;2023-04-03T03:38:22;11.00;;;3.33;;
19923;SDS011;10124;53.068;18.224;2023-04-03T03:40:51;16.27;;;4.70;;
19923;SDS011;10124;53.068;18.224;2023-04-03T03:43:23;9.30;;;3.80;;
19923;SDS011;10124;53.068;18.224;2023-04-03T03:45:52;11.20;;;4.00;;
19923;SDS011;10124;53.068;18.224;2023-04-03T03:48:22;9.73;;;3.70;;
19923;SDS011;10124;53.068;18.224;2023-04-03T03:50:50;11.93;;;4.10;;
19923;SDS011;10124;53.068;18.224;2023-04-03T03:53:21;12.23;;;4.20;;
19923;SDS011;10124;53.068;18.224;2023-04-03T03:55:52;7.73;;;3.70;;
19923;SDS011;10124;53.068;18.224;2023-04-03T03:58:23;15.33;;;4.47;;
19923;SDS011;10124;53.068;18.224;2023-04-03T04:00:51;10.13;;;3.73;;
19923;SDS011;10124;53.068;18.224;2023-04-03T04:03:19;10.63;;;4.30;;
19923;SDS011;10124;53.068;18.224;2023-04-03T04:05:48;7.47;;;4.07;;
19923;SDS011;10124;53.068;18.224;2023-04-03T04:08:16;11.03;;;3.63;;
19923;SDS011;10124;53.068;18.224;2023-04-03T04:10:45;9.43;;;4.13;;
19923;SDS011;10124;53.068;18.224;2023-04-03T04:13:17;9.80;;;4.30;;
19923;SDS011;10124;53.068;18.224;2023-04-03T04:15:45;12.77;;;4.07;;
19923;SDS011;10124;53.068;18.224;2023-04-03T04:18:14;13.43;;;4.70;;
19923;SDS011;10124;53.068;18.224;2023-04-03T04:20:45;12.67;;;4.30;;
19923;SDS011;10124;53.068;18.224;2023-04-03T04:23:15;13.23;;;4.43;;
19923;SDS011;10124;53.068;18.224;2023-04-03T04:25:48;11.80;;;4.60;;
19923;SDS011;10124;53.068;18.224;2023-04-03T04:28:16;11.10;;;4.50;;
19923;SDS011;10124;53.068;18.224;2023-04-03T04:30:46;12.97;;;4.80;;
19923;SDS011;10124;53.068;18.224;2023-04-03T04:33:15;9.70;;;4.63;;
19923;SDS011;10124;53.068;18.224;2023-04-03T04:35:44;11.93;;;5.63;;
19923;SDS011;10124;53.068;18.224;2023-04-03T04:38:12;11.17;;;5.07;;
19923;SDS011;10124;53.068;18.224;2023-04-03T04:40:39;13.37;;;5.37;;
19923;SDS011;10124;53.068;18.224;2023-04-03T04:43:08;10.20;;;5.60;;
19923;SDS011;10124;53.068;18.224;2023-04-03T04:45:37;15.63;;;4.87;;
19923;SDS011;10124;53.068;18.224;2023-04-03T04:48:05;10.70;;;4.83;;
19923;SDS011;10124;53.068;18.224;2023-04-03T04:50:33;17.93;;;6.10;;
19923;SDS011;10124;53.068;18.224;2023-04-03T04:53:01;9.40;;;4.93;;
19923;SDS011;10124;53.068;18.224;2023-04-03T04:55:28;13.83;;;4.83;;
19923;SDS011;10124;53.068;18.224;2023-04-03T04:57:56;17.37;;;5.97;;
19923;SDS011;10124;53.068;18.224;2023-04-03T05:00:23;12.83;;;4.83;;
19923;SDS011;10124;53.068;18.224;2023-04-03T05:02:53;10.13;;;4.97;;
19923;SDS011;10124;53.068;18.224;2023-04-03T05:05:21;12.63;;;4.93;;
19923;SDS011;10124;53.068;18.224;2023-04-03T05:07:49;13.47;;;5.10;;
19923;SDS011;10124;53.068;18.224;2023-04-03T05:10:17;12.80;;;4.73;;
19923;SDS011;10124;53.068;18.224;2023-04-03T05:12:46;12.57;;;5.43;;
19923;SDS011;10124;53.068;18.224;2023-04-03T05:15:14;9.53;;;4.80;;
19923;SDS011;10124;53.068;18.224;2023-04-03T05:17:43;13.23;;;4.67;;
19923;SDS011;10124;53.068;18.224;2023-04-03T05:20:13;17.30;;;5.93;;
19923;SDS011;10124;53.068;18.224;2023-04-03T05:22:43;11.10;;;4.33;;
19923;SDS011;10124;53.068;18.224;2023-04-03T05:25:10;13.33;;;5.80;;
19923;SDS011;10124;53.068;18.224;2023-04-03T05:27:42;17.07;;;6.70;;
19923;SDS011;10124;53.068;18.224;2023-04-03T05:30:09;16.90;;;10.57;;
19923;SDS011;10124;53.068;18.224;2023-04-03T05:32:40;28.93;;;16.27;;
19923;SDS011;10124;53.068;18.224;2023-04-03T05:35:16;23.60;;;13.70;;
19923;SDS011;10124;53.068;18.224;2023-04-03T05:37:47;18.00;;;9.23;;
19923;SDS011;10124;53.068;18.224;2023-04-03T05:40:16;12.93;;;7.50;;
19923;SDS011;10124;53.068;18.224;2023-04-03T05:42:48;15.20;;;10.10;;
19923;SDS011;10124;53.068;18.224;2023-04-03T05:45:18;8.57;;;4.50;;
19923;SDS011;10124;53.068;18.224;2023-04-03T05:47:46;11.30;;;5.90;;
19923;SDS011;10124;53.068;18.224;2023-04-03T05:50:14;10.90;;;4.03;;
19923;SDS011;10124;53.068;18.224;2023-04-03T05:52:43;11.90;;;4.90;;
19923;SDS011;10124;53.068;18.224;2023-04-03T05:55:13;13.93;;;8.70;;
19923;SDS011;10124;53.068;18.224;2023-04-03T05:57:41;8.67;;;4.93;;
19923;SDS011;10124;53.068;18.224;2023-04-03T06:00:13;15.60;;;8.87;;
19923;SDS011;10124;53.068;18.224;2023-04-03T06:02:54;7.87;;;4.70;;
19923;SDS011;10124;53.068;18.224;2023-04-03T06:05:24;14.43;;;4.10;;
19923;SDS011;10124;53.068;18.224;2023-04-03T06:07:52;7.13;;;4.70;;
19923;SDS011;10124;53.068;18.224;2023-04-03T06:10:19;13.90;;;5.37;;
19923;SDS011;10124;53.068;18.224;2023-04-03T06:12:47;10.73;;;3.97;;
19923;SDS011;10124;53.068;18.224;2023-04-03T06:15:15;7.47;;;3.53;;
19923;SDS011;10124;53.068;18.224;2023-04-03T06:17:43;9.17;;;3.80;;
19923;SDS011;10124;53.068;18.224;2023-04-03T06:20:12;9.87;;;3.73;;
19923;SDS011;10124;53.068;18.224;2023-04-03T06:22:40;9.63;;;3.27;;
19923;SDS011;10124;53.068;18.224;2023-04-03T06:25:10;7.63;;;3.53;;
19923;SDS011;10124;53.068;18.224;2023-04-03T06:27:39;9.07;;;2.77;;
19923;SDS011;10124;53.068;18.224;2023-04-03T06:30:07;6.67;;;2.97;;
19923;SDS011;10124;53.068;18.224;2023-04-03T06:32:35;5.03;;;2.50;;
19923;SDS011;10124;53.068;18.224;2023-04-03T06:35:03;6.50;;;3.30;;
19923;SDS011;10124;53.068;18.224;2023-04-03T06:37:31;6.27;;;3.07;;
19923;SDS011;10124;53.068;18.224;2023-04-03T06:39:59;8.03;;;2.60;;
19923;SDS011;10124;53.068;18.224;2023-04-03T06:42:27;6.87;;;3.60;;
19923;SDS011;10124;53.068;18.224;2023-04-03T06:45:06;8.00;;;3.30;;
19923;SDS011;10124;53.068;18.224;2023-04-03T06:47:34;6.57;;;3.47;;
19923;SDS011;10124;53.068;18.224;2023-04-03T06:50:02;8.20;;;3.80;;
19923;SDS011;10124;53.068;18.224;2023-04-03T06:52:33;5.03;;;3.03;;
19923;SDS011;10124;53.068;18.224;2023-04-03T06:55:00;4.73;;;2.63;;
19923;SDS011;10124;53.068;18.224;2023-04-03T06:57:29;16.87;;;10.23;;
19923;SDS011;10124;53.068;18.224;2023-04-03T06:59:57;10.70;;;3.93;;
19923;SDS011;10124;53.068;18.224;2023-04-03T07:02:25;5.90;;;2.80;;
19923;SDS011;10124;53.068;18.224;2023-04-03T07:04:54;10.00;;;3.50;;
19923;SDS011;10124;53.068;18.224;2023-04-03T07:07:22;5.30;;;2.70;;
19923;SDS011;10124;53.068;18.224;2023-04-03T07:09:50;5.60;;;2.70;;
19923;SDS011;10124;53.068;18.224;2023-04-03T07:12:18;7.60;;;3.40;;
19923;SDS011;10124;53.068;18.224;2023-04-03T07:14:46;15.93;;;9.33;;
19923;SDS011;10124;53.068;18.224;2023-04-03T07:17:14;8.17;;;4.13;;
19923;SDS011;10124;53.068;18.224;2023-04-03T07:19:42;9.23;;;5.03;;
19923;SDS011;10124;53.068;18.224;2023-04-03T07:22:10;5.53;;;2.73;;
19923;SDS011;10124;53.068;18.224;2023-04-03T07:24:37;4.73;;;2.80;;
19923;SDS011;10124;53.068;18.224;2023-04-03T07:27:05;4.67;;;2.33;;
19923;SDS011;10124;53.068;18.224;2023-04-03T07:29:35;7.90;;;2.00;;
19923;SDS011;10124;53.068;18.224;2023-04-03T07:32:02;6.70;;;2.10;;
19923;SDS011;10124;53.068;18.224;2023-04-03T07:34:31;10.73;;;2.57;;
19923;SDS011;10124;53.068;18.224;2023-04-03T07:36:59;5.47;;;2.70;;
19923;SDS011;10124;53.068;18.224;2023-04-03T07:39:28;7.03;;;2.63;;
19923;SDS011;10124;53.068;18.224;2023-04-03T07:41:56;5.33;;;2.20;;
19923;SDS011;10124;53.068;18.224;2023-04-03T07:44:23;4.77;;;2.50;;
19923;SDS011;10124;53.068;18.224;2023-04-03T07:46:51;7.30;;;2.57;;
19923;SDS011;10124;53.068;18.224;2023-04-03T07:49:18;11.20;;;2.80;;
19923;SDS011;10124;53.068;18.224;2023-04-03T07:51:46;5.63;;;1.70;;
19923;SDS011;10124;53.068;18.224;2023-04-03T07:54:15;4.27;;;2.33;;
19923;SDS011;10124;53.068;18.224;2023-04-03T07:56:42;6.43;;;2.30;;
19923;SDS011;10124;53.068;18.224;2023-04-03T07:59:10;6.83;;;2.40;;
19923;SDS011;10124;53.068;18.224;2023-04-03T08:01:38;5.97;;;2.33;;
19923;SDS011;10124;53.068;18.224;2023-04-03T08:04:05;6.00;;;2.30;;
19923;SDS011;10124;53.068;18.224;2023-04-03T08:06:33;5.27;;;3.13;;
19923;SDS011;10124;53.068;18.224;2023-04-03T08:09:13;6.00;;;3.47;;
19923;SDS011;10124;53.068;18.224;2023-04-03T08:11:43;3.42;;;2.58;;
19923;SDS011;10124;53.068;18.224;2023-04-03T08:14:11;4.95;;;1.50;;
19923;SDS011;10124;53.068;18.224;2023-04-03T08:16:44;3.35;;;1.77;;
19923;SDS011;10124;53.068;18.224;2023-04-03T08:19:14;3.25;;;1.60;;
19923;SDS011;10124;53.068;18.224;2023-04-03T08:21:53;7.75;;;2.03;;
19923;SDS011;10124;53.068;18.224;2023-04-03T08:24:21;6.22;;;2.22;;
19923;SDS011;10124;53.068;18.224;2023-04-03T08:26:49;3.83;;;2.60;;
19923;SDS011;10124;53.068;18.224;2023-04-03T08:29:17;5.30;;;2.00;;
19923;SDS011;10124;53.068;18.224;2023-04-03T08:31:45;5.45;;;1.83;;
19923;SDS011;10124;53.068;18.224;2023-04-03T08:34:13;6.05;;;1.58;;
19923;SDS011;10124;53.068;18.224;2023-04-03T08:36:42;4.07;;;2.25;;
19923;SDS011;10124;53.068;18.224;2023-04-03T08:39:10;5.72;;;1.73;;
19923;SDS011;10124;53.068;18.224;2023-04-03T08:41:40;7.47;;;2.35;;
19923;SDS011;10124;53.068;18.224;2023-04-03T08:47:01;2.65;;;1.58;;
19923;SDS011;10124;53.068;18.224;2023-04-03T08:49:45;13.23;;;4.50;;
19923;SDS011;10124;53.068;18.224;2023-04-03T08:52:19;6.22;;;3.83;;
19923;SDS011;10124;53.068;18.224;2023-04-03T08:54:57;7.93;;;1.88;;
19923;SDS011;10124;53.068;18.224;2023-04-03T08:57:31;4.50;;;1.42;;
19923;SDS011;10124;53.068;18.224;2023-04-03T09:00:09;5.68;;;1.80;;
19923;SDS011;10124;53.068;18.224;2023-04-03T09:02:49;4.50;;;1.92;;
19923;SDS011;10124;53.068;18.224;2023-04-03T09:05:28;5.03;;;1.90;;
19923;SDS011;10124;53.068;18.224;2023-04-03T09:11:06;5.57;;;1.90;;
19923;SDS011;10124;53.068;18.224;2023-04-03T09:16:28;5.53;;;1.85;;
19923;SDS011;10124;53.068;18.224;2023-04-03T09:19:15;6.15;;;1.85;;
19923;SDS011;10124;53.068;18.224;2023-04-03T09:21:50;4.88;;;2.33;;
19923;SDS011;10124;53.068;18.224;2023-04-03T09:24:18;4.13;;;2.13;;
19923;SDS011;10124;53.068;18.224;2023-04-03T09:26:51;8.55;;;4.30;;
19923;SDS011;10124;53.068;18.224;2023-04-03T09:29:21;7.25;;;2.28;;
19923;SDS011;10124;53.068;18.224;2023-04-03T09:31:50;3.03;;;1.63;;
19923;SDS011;10124;53.068;18.224;2023-04-03T09:34:25;4.05;;;2.08;;
19923;SDS011;10124;53.068;18.224;2023-04-03T09:36:55;3.78;;;1.70;;
19923;SDS011;10124;53.068;18.224;2023-04-03T09:39:26;8.95;;;1.73;;
19923;SDS011;10124;53.068;18.224;2023-04-03T09:52:41;3.38;;;1.30;;
19923;SDS011;10124;53.068;18.224;2023-04-03T09:55:15;3.08;;;1.05;;
19923;SDS011;10124;53.068;18.224;2023-04-03T09:57:45;4.63;;;1.25;;
19923;SDS011;10124;53.068;18.224;2023-04-03T10:00:23;4.63;;;2.08;;
19923;SDS011;10124;53.068;18.224;2023-04-03T10:02:54;10.43;;;5.07;;
19923;SDS011;10124;53.068;18.224;2023-04-03T10:05:39;5.05;;;2.97;;
19923;SDS011;10124;53.068;18.224;2023-04-03T10:08:09;5.07;;;3.25;;
19923;SDS011;10124;53.068;18.224;2023-04-03T10:10:37;10.45;;;2.50;;
19923;SDS011;10124;53.068;18.224;2023-04-03T10:15:35;2.42;;;1.30;;
19923;SDS011;10124;53.068;18.224;2023-04-03T10:18:15;6.70;;;1.80;;
19923;SDS011;10124;53.068;18.224;2023-04-03T10:20:51;5.07;;;2.20;;
19923;SDS011;10124;53.068;18.224;2023-04-03T10:26:45;5.97;;;3.35;;
19923;SDS011;10124;53.068;18.224;2023-04-03T10:32:32;4.90;;;3.00;;
19923;SDS011;10124;53.068;18.224;2023-04-03T10:35:28;6.00;;;3.28;;
19923;SDS011;10124;53.068;18.224;2023-04-03T10:38:02;6.05;;;3.15;;
19923;SDS011;10124;53.068;18.224;2023-04-03T10:43:33;5.40;;;2.60;;
19923;SDS011;10124;53.068;18.224;2023-04-03T10:54:13;5.37;;;3.30;;
19923;SDS011;10124;53.068;18.224;2023-04-03T10:56:56;2.50;;;1.60;;
19923;SDS011;10124;53.068;18.224;2023-04-03T10:59:50;2.77;;;1.77;;
19923;SDS011;10124;53.068;18.224;2023-04-03T11:02:24;4.40;;;2.45;;
19923;SDS011;10124;53.068;18.224;2023-04-03T11:05:07;3.33;;;1.98;;
19923;SDS011;10124;53.068;18.224;2023-04-03T11:08:02;9.80;;;2.80;;
19923;SDS011;10124;53.068;18.224;2023-04-03T11:10:37;2.42;;;1.23;;
19923;SDS011;10124;53.068;18.224;2023-04-03T11:13:11;2.60;;;1.10;;
19923;SDS011;10124;53.068;18.224;2023-04-03T11:15:55;2.92;;;1.45;;
19923;SDS011;10124;53.068;18.224;2023-04-03T11:18:33;4.88;;;1.70;;
19923;SDS011;10124;53.068;18.224;2023-04-03T11:21:11;3.25;;;1.70;;
19923;SDS011;10124;53.068;18.224;2023-04-03T11:23:44;4.90;;;2.13;;
19923;SDS011;10124;53.068;18.224;2023-04-03T11:26:17;9.23;;;4.10;;
19923;SDS011;10124;53.068;18.224;2023-04-03T11:29:22;7.40;;;4.85;;
19923;SDS011;10124;53.068;18.224;2023-04-03T11:34:57;11.75;;;6.18;;
19923;SDS011;10124;53.068;18.224;2023-04-03T11:40:02;5.40;;;3.25;;
19923;SDS011;10124;53.068;18.224;2023-04-03T11:42:36;5.60;;;2.35;;
19923;SDS011;10124;53.068;18.224;2023-04-03T11:47:58;3.35;;;1.67;;
19923;SDS011;10124;53.068;18.224;2023-04-03T11:50:45;2.13;;;1.05;;
19923;SDS011;10124;53.068;18.224;2023-04-03T11:55:42;4.00;;;1.70;;
19923;SDS011;10124;53.068;18.224;2023-04-03T11:58:23;5.53;;;1.38;;
19923;SDS011;10124;53.068;18.224;2023-04-03T12:00:54;4.20;;;2.00;;
19923;SDS011;10124;53.068;18.224;2023-04-03T12:13:36;4.40;;;3.10;;
19923;SDS011;10124;53.068;18.224;2023-04-03T12:16:22;5.33;;;2.07;;
19923;SDS011;10124;53.068;18.224;2023-04-03T12:21:21;6.30;;;2.90;;
19923;SDS011;10124;53.068;18.224;2023-04-03T12:26:38;5.50;;;3.03;;
19923;SDS011;10124;53.068;18.224;2023-04-03T12:29:17;8.40;;;4.33;;
19923;SDS011;10124;53.068;18.224;2023-04-03T12:45:52;7.83;;;1.50;;
19923;SDS011;10124;53.068;18.224;2023-04-03T12:51:30;3.40;;;1.60;;
19923;SDS011;10124;53.068;18.224;2023-04-03T12:54:42;3.20;;;1.77;;
19923;SDS011;10124;53.068;18.224;2023-04-03T12:57:17;4.65;;;1.35;;
19923;SDS011;10124;53.068;18.224;2023-04-03T12:59:50;4.20;;;2.10;;
19923;SDS011;10124;53.068;18.224;2023-04-03T13:02:22;3.50;;;2.00;;
19923;SDS011;10124;53.068;18.224;2023-04-03T13:05:08;4.73;;;2.43;;
19923;SDS011;10124;53.068;18.224;2023-04-03T13:07:48;4.47;;;1.93;;
19923;SDS011;10124;53.068;18.224;2023-04-03T13:11:35;2.33;;;1.50;;
19923;SDS011;10124;53.068;18.224;2023-04-03T13:14:05;3.03;;;2.00;;
19923;SDS011;10124;53.068;18.224;2023-04-03T13:16:57;6.20;;;2.20;;
19923;SDS011;10124;53.068;18.224;2023-04-03T13:19:28;4.90;;;2.53;;
19923;SDS011;10124;53.068;18.224;2023-04-03T13:21:59;3.30;;;1.80;;
19923;SDS011;10124;53.068;18.224;2023-04-03T13:24:36;4.93;;;1.88;;
19923;SDS011;10124;53.068;18.224;2023-04-03T13:27:06;3.88;;;1.85;;
19923;SDS011;10124;53.068;18.224;2023-04-03T13:29:37;5.10;;;1.92;;
19923;SDS011;10124;53.068;18.224;2023-04-03T13:32:06;5.25;;;1.48;;
19923;SDS011;10124;53.068;18.224;2023-04-03T13:34:44;3.60;;;1.70;;
19923;SDS011;10124;53.068;18.224;2023-04-03T13:37:27;5.87;;;1.20;;
19923;SDS011;10124;53.068;18.224;2023-04-03T13:39:59;1.87;;;1.50;;
19923;SDS011;10124;53.068;18.224;2023-04-03T13:42:57;3.17;;;1.67;;
19923;SDS011;10124;53.068;18.224;2023-04-03T13:45:32;3.23;;;1.70;;
19923;SDS011;10124;53.068;18.224;2023-04-03T13:48:10;6.30;;;2.93;;
19923;SDS011;10124;53.068;18.224;2023-04-03T13:51:04;3.93;;;2.00;;
19923;SDS011;10124;53.068;18.224;2023-04-03T13:53:44;5.30;;;2.27;;
19923;SDS011;10124;53.068;18.224;2023-04-03T13:56:19;5.43;;;2.27;;
19923;SDS011;10124;53.068;18.224;2023-04-03T14:07:14;4.07;;;1.40;;
19923;SDS011;10124;53.068;18.224;2023-04-03T14:09:43;6.43;;;3.85;;
19923;SDS011;10124;53.068;18.224;2023-04-03T14:12:18;6.40;;;1.90;;
19923;SDS011;10124;53.068;18.224;2023-04-03T14:15:01;4.13;;;2.43;;
19923;SDS011;10124;53.068;18.224;2023-04-03T14:17:31;28.17;;;12.40;;
19923;SDS011;10124;53.068;18.224;2023-04-03T14:19:59;6.80;;;2.57;;
19923;SDS011;10124;53.068;18.224;2023-04-03T14:22:30;11.90;;;4.33;;
19923;SDS011;10124;53.068;18.224;2023-04-03T14:24:59;16.93;;;7.97;;
19923;SDS011;10124;53.068;18.224;2023-04-03T14:27:29;29.03;;;14.57;;
19923;SDS011;10124;53.068;18.224;2023-04-03T14:30:02;13.27;;;4.63;;
19923;SDS011;10124;53.068;18.224;2023-04-03T14:32:31;274.70;;;100.93;;
19923;SDS011;10124;53.068;18.224;2023-04-03T14:34:59;394.57;;;165.47;;
19923;SDS011;10124;53.068;18.224;2023-04-03T14:37:28;328.30;;;129.43;;
19923;SDS011;10124;53.068;18.224;2023-04-03T14:39:58;66.20;;;22.10;;
19923;SDS011;10124;53.068;18.224;2023-04-03T14:42:31;28.60;;;11.40;;
19923;SDS011;10124;53.068;18.224;2023-04-03T14:45:03;6.33;;;2.83;;
19923;SDS011;10124;53.068;18.224;2023-04-03T14:47:33;11.90;;;5.03;;
19923;SDS011;10124;53.068;18.224;2023-04-03T14:50:11;63.03;;;20.30;;
19923;SDS011;10124;53.068;18.224;2023-04-03T14:52:41;62.53;;;24.77;;
19923;SDS011;10124;53.068;18.224;2023-04-03T14:55:11;11.80;;;2.80;;
19923;SDS011;10124;53.068;18.224;2023-04-03T14:57:41;73.43;;;39.77;;
19923;SDS011;10124;53.068;18.224;2023-04-03T15:00:14;106.53;;;55.10;;
19923;SDS011;10124;53.068;18.224;2023-04-03T15:02:44;75.07;;;36.60;;
19923;SDS011;10124;53.068;18.224;2023-04-03T15:05:13;107.10;;;55.73;;
19923;SDS011;10124;53.068;18.224;2023-04-03T15:07:43;121.10;;;58.53;;
19923;SDS011;10124;53.068;18.224;2023-04-03T15:12:47;184.73;;;86.30;;
19923;SDS011;10124;53.068;18.224;2023-04-03T15:15:17;397.17;;;145.70;;
19923;SDS011;10124;53.068;18.224;2023-04-03T15:17:47;410.73;;;120.40;;
19923;SDS011;10124;53.068;18.224;2023-04-03T15:20:22;319.80;;;92.43;;
19923;SDS011;10124;53.068;18.224;2023-04-03T15:22:52;212.67;;;71.80;;
19923;SDS011;10124;53.068;18.224;2023-04-03T15:25:23;28.57;;;10.00;;
19923;SDS011;10124;53.068;18.224;2023-04-03T15:27:59;384.30;;;117.33;;
19923;SDS011;10124;53.068;18.224;2023-04-03T15:30:26;76.63;;;21.60;;
19923;SDS011;10124;53.068;18.224;2023-04-03T15:32:54;43.33;;;14.03;;
19923;SDS011;10124;53.068;18.224;2023-04-03T15:35:23;40.37;;;13.93;;
19923;SDS011;10124;53.068;18.224;2023-04-03T15:37:51;55.93;;;17.97;;
19923;SDS011;10124;53.068;18.224;2023-04-03T15:40:18;64.90;;;20.10;;
19923;SDS011;10124;53.068;18.224;2023-04-03T15:42:46;47.70;;;16.87;;
19923;SDS011;10124;53.068;18.224;2023-04-03T15:45:14;19.90;;;8.37;;
19923;SDS011;10124;53.068;18.224;2023-04-03T15:47:42;143.87;;;57.83;;
19923;SDS011;10124;53.068;18.224;2023-04-03T15:50:10;59.63;;;22.03;;
19923;SDS011;10124;53.068;18.224;2023-04-03T15:52:38;42.93;;;15.07;;
19923;SDS011;10124;53.068;18.224;2023-04-03T15:55:07;21.60;;;7.03;;
19923;SDS011;10124;53.068;18.224;2023-04-03T15:57:35;20.63;;;8.57;;
19923;SDS011;10124;53.068;18.224;2023-04-03T16:00:08;11.57;;;3.80;;
19923;SDS011;10124;53.068;18.224;2023-04-03T16:02:36;8.30;;;3.50;;
19923;SDS011;10124;53.068;18.224;2023-04-03T16:05:05;16.57;;;6.83;;
19923;SDS011;10124;53.068;18.224;2023-04-03T16:07:34;6.00;;;2.70;;
19923;SDS011;10124;53.068;18.224;2023-04-03T16:10:05;7.20;;;3.30;;
19923;SDS011;10124;53.068;18.224;2023-04-03T16:12:34;5.53;;;2.90;;
19923;SDS011;10124;53.068;18.224;2023-04-03T16:15:02;7.93;;;3.23;;
19923;SDS011;10124;53.068;18.224;2023-04-03T16:17:31;12.73;;;5.13;;
19923;SDS011;10124;53.068;18.224;2023-04-03T16:20:00;4.27;;;2.10;;
19923;SDS011;10124;53.068;18.224;2023-04-03T16:22:30;65.93;;;23.60;;
19923;SDS011;10124;53.068;18.224;2023-04-03T16:24:59;5.37;;;3.00;;
19923;SDS011;10124;53.068;18.224;2023-04-03T16:27:26;5.53;;;2.47;;
19923;SDS011;10124;53.068;18.224;2023-04-03T16:29:56;5.63;;;2.93;;